NY Terminal Aviation Weather Discussion (AFD) - Prepared: 713 PM EDT WED APR 1 2015
HIGH PRESSURE BUILDS TONIGHT. THE HIGH TRACKS TO THE EAST AS A
WARM FRONT MOVES THROUGH THURSDAY MORNING.

VFR THRU THE TAF PERIOD. ISOLATED -SHRA POSSIBLE ACROSS NORTHERN
TERMINALS EARLY THU MORNING. 

GUSTY NORTHWEST WINDS WILL LIGHTEN TONIGHT AND BECOME S/SW BY
MORNING. S/SW WINDS INCREASE ON THURSDAY...PEAKING AT 15 TO 25 KT
WITH GUSTS 25 TO 30 LATE THU AFT. WINDS SUBSIDE A BIT AFTER 00Z.

5 Day General Aviation Outlook:

.OUTLOOK FOR 00Z FRIDAY THROUGH MONDAY...
.THURSDAY NIGHT...DEVELOPING RAIN SHOWERS...WITH MVFR CONDS LATE.
SOUTHERLY WINDS OF 15 TO 20 KT WITH HIGHER GUSTS.
.FRIDAY-FRIDAY NIGHT...MVFR OR LOWER IN RAIN SHOWERS. WIND FORECAST
UNCERTAIN AS FRONT REMAINS NEARBY.
.SATURDAY...SUB-VFR POSSIBLE IN SHOWERS EARLY...THEN VFR. GUSTY
NW WINDS 20 TO 30 KTS.
.SATURDAY NIGHT-SUNDAY...VFR.
.SUNDAY NIGHT-MONDAY...MAINLY VFR...BUT CANNOT RULE OUT SUB VFR AT 
TIMES IN POSSIBLE SHOWERS.


*************************************************************************************
KJFK Terminal Weather:

FTNA35 KJFK 012340 RRG
KJFK 012331Z 0200/0306 31008KT P6SM SKC
     TEMPO 0200/0201 32012G18KT
     FM020500 VRB04KT P6SM FEW040 SCT250
     FM021200 21007KT P6SM SCT040 BKN150
     FM021400 19014KT P6SM FEW050 SCT250
     FM021700 19017G23KT P6SM SCT050 BKN250
     FM022000 18025G30KT P6SM SCT050 BKN250
     FM030000 19020KT P6SM SCT050 BKN100
     PROB30 0302/0306 -SHRA BKN050
KJFK FCSTER COMMENTS: SUSTAINED SOUTHERLY WINDS OF 25-30 KT
POSSIBLE BTWN 19Z AND 23Z.

*************************************************************************************
KLGA Terminal Weather:
FTUS80 KLGA 012333 RRG
KLGA 012331Z 0200/0224 32008KT P6SM SKC
      TEMPO 0200/0201 32012G18KT
     FM020500 VRB04KT P6SM FEW040 SCT250
     FM021200 21005KT P6SM SCT040 BKN150
     FM021400 21012KT P6SM FEW050 SCT250
     FM021700 19016G23KT P6SM SCT050 BKN250
     FM022000 18021G30KT P6SM SCT050 BKN250
KLGA FCSTER COMMENTS: SOUTHERLY GUSTS AROUND 35KT POSSIBLE BTWN
19Z AND 23Z.

*************************************************************************************
KEWR Terminal Weather:
FTUS80 KEWR 012333 RRD
KEWR 012331Z 0200/0306 31008KT P6SM SKC
      TEMPO 0200/0201 32012G18KT
     FM020500 VRB04KT P6SM FEW040 SCT250
     FM021200 22005KT P6SM SCT040 BKN150
     FM021400 21011KT P6SM FEW050 SCT250
     FM021700 21015G24KT P6SM SCT050 BKN250
     FM022000 21018G30KT P6SM SCT050 BKN250
     FM030000 19014G20KT P6SM SCT050 BKN100 PROB30 0302/0306 -SHRA
      BKN050
KEWR FCSTER COMMENTS: SOUTHERLY GUSTS AROUND 35KT POSSIBLE BTWN
19Z AND 23Z.

*************************************************************************************
KTEB Terminal Weather:
FTUS80 KTEB 012333 RRL
KTEB 012331Z 0200/0224 30005KT P6SM SKC
     FM020500 VRB03KT P6SM FEW040 SCT250
     FM021200 22004KT P6SM SCT040 BKN150
     FM021400 21008KT P6SM FEW050 SCT250
     FM021700 21013G19KT P6SM SCT050 BKN250
     FM022000 21016G27KT P6SM SCT050 BKN250
KTEB FCSTER COMMENTS: SOUTHERLY GUSTS AROUND 35KT POSSIBLE BTWN
19Z AND 23Z.

*************************************************************************************
KHPN Terminal Weather:
FTUS80 KHPN 012333 RRE
KHPN 012331Z 0200/0224 31005KT P6SM SKC
     FM020500 VRB03KT P6SM FEW040 SCT250
     FM021200 22004KT P6SM SCT040 BKN150
     FM021400 21008KT P6SM FEW050 SCT250
     FM021700 19011KT P6SM SCT050 BKN250
     FM022000 18015G25KT P6SM SCT050 BKN250 AMD NOT SKED
KHPN FCSTER COMMENTS: NO UNSCHEDULED AMENDMENTS EXPECTED. 

*************************************************************************************
KISP Terminal Weather:
FTUS51 KISP 012333
KISP 012331Z 0200/0224 31005KT P6SM SKC
     FM020500 VRB04KT P6SM FEW040 SCT250
     FM021200 22006KT P6SM SCT040 BKN150
     FM021400 22009KT P6SM FEW050 SCT250
     FM021700 21014G20KT P6SM SCT050 BKN250
     FM022000 20020G26KT P6SM SCT050 BKN250
KISP FCSTER COMMENTS: NO UNSCHEDULED AMENDMENTS EXPECTED.

*************************************************************************************
5 Day General Outlook:

.OUTLOOK FOR 00Z FRIDAY THROUGH MONDAY...
.THURSDAY NIGHT...DEVELOPING RAIN SHOWERS...WITH MVFR CONDS LATE.
SOUTHERLY WINDS OF 15 TO 20 KT WITH HIGHER GUSTS.
.FRIDAY-FRIDAY NIGHT...MVFR OR LOWER IN RAIN SHOWERS. WIND FORECAST
UNCERTAIN AS FRONT REMAINS NEARBY.
.SATURDAY...SUB-VFR POSSIBLE IN SHOWERS EARLY...THEN VFR. GUSTY
NW WINDS 20 TO 30 KTS.
.SATURDAY NIGHT-SUNDAY...VFR.
.SUNDAY NIGHT-MONDAY...MAINLY VFR...BUT CANNOT RULE OUT SUB VFR AT 
TIMES IN POSSIBLE SHOWERS.


Click the Print Icon print icon below to print the briefing sheet